Time;durP1;ratioP1;P1;durP2;ratioP2;P2;SDS_P1;SDS_P2;PMS_P1;PMS_P2;Temp;Humidity;BMP_temperature;BMP_pressure;BME280_temperature;BME280_humidity;BME280_pressure;Samples;Min_cycle;Max_cycle;Signal;HPM_P1;HPM_P2
2023/02/01 00:01:29;;;;;;;6.65;2.05;;;;;;;5.01;95.75;100401.63;4967440;28;20074;-77
2023/02/01 00:03:55;;;;;;;7.88;1.90;;;;;;;5.00;96.83;100400.75;4963694;28;20035;-77
2023/02/01 00:06:20;;;;;;;9.93;2.45;;;;;;;4.92;97.35;100397.13;4962913;28;20085;-77
2023/02/01 00:08:45;;;;;;;7.53;2.25;;;;;;;4.91;97.68;100397.97;4967204;28;20034;-77
2023/02/01 00:11:11;;;;;;;7.60;2.70;;;;;;;4.85;98.06;100392.69;4967807;28;20035;-77
2023/02/01 00:13:39;;;;;;;8.43;2.92;;;;;;;4.81;98.02;100393.47;4964550;28;20178;-77
2023/02/01 00:16:22;;;;;;;8.48;2.00;;;;;;;4.81;97.26;100393.47;4966578;28;20042;-77
2023/02/01 00:18:50;;;;;;;10.68;2.08;;;;;;;4.84;96.25;100390.91;4970610;28;20039;-78
2023/02/01 00:21:19;;;;;;;7.28;1.92;;;;;;;4.81;94.83;100398.69;4966998;28;20065;-77
2023/02/01 00:23:45;;;;;;;8.00;1.95;;;;;;;4.81;94.75;100385.63;4970799;28;20043;-77
2023/02/01 00:26:37;;;;;;;8.35;1.90;;;;;;;4.83;95.00;100390.03;4969366;28;20090;-77
2023/02/01 00:29:05;;;;;;;15.27;2.30;;;;;;;4.88;93.73;100389.22;4978165;28;20045;-77
2023/02/01 00:31:30;;;;;;;6.18;1.52;;;;;;;4.83;93.21;100392.63;4984604;28;20043;-77
2023/02/01 00:33:55;;;;;;;7.70;1.65;;;;;;;4.76;93.06;100392.53;4966200;28;20109;-77
2023/02/01 00:36:21;;;;;;;7.28;1.50;;;;;;;4.62;93.17;100408.00;4964437;28;20035;-78
2023/02/01 00:38:47;;;;;;;11.15;2.00;;;;;;;4.48;93.83;100399.03;4966155;28;20030;-77
2023/02/01 00:41:15;;;;;;;6.22;1.38;;;;;;;4.42;95.09;100393.72;4969206;28;20109;-77
2023/02/01 00:43:41;;;;;;;6.18;1.70;;;;;;;4.33;95.58;100395.34;4969465;28;20408;-77
2023/02/01 00:46:07;;;;;;;7.07;2.13;;;;;;;4.27;97.95;100403.06;4965497;28;20038;-77
2023/02/01 00:48:33;;;;;;;8.65;2.63;;;;;;;4.06;100.00;100400.97;4983331;28;20039;-77
2023/02/01 00:51:04;;;;;;;9.57;2.63;;;;;;;3.90;100.00;100393.69;4963894;28;20043;-77
2023/02/01 00:53:30;;;;;;;5.93;2.53;;;;;;;3.73;100.00;100404.69;4971917;28;20130;-77
2023/02/01 00:55:56;;;;;;;11.07;2.83;;;;;;;3.68;100.00;100397.63;4979791;28;20056;-77
2023/02/01 00:58:23;;;;;;;8.85;2.20;;;;;;;3.66;100.00;100405.41;4964507;28;20042;-77
2023/02/01 01:00:49;;;;;;;9.80;3.42;;;;;;;3.66;100.00;100400.19;4963519;28;20042;-77
2023/02/01 01:03:17;;;;;;;9.68;2.90;;;;;;;3.66;100.00;100404.53;4965896;28;20065;-77
2023/02/01 01:05:49;;;;;;;12.48;2.70;;;;;;;3.62;100.00;100401.00;4965440;28;20042;-77
2023/02/01 01:08:15;;;;;;;8.95;2.80;;;;;;;3.64;100.00;100407.13;4977519;28;20497;-77
2023/02/01 01:10:41;;;;;;;9.75;2.75;;;;;;;3.68;100.00;100408.06;4965192;28;20158;-77
2023/02/01 01:13:07;;;;;;;9.68;2.95;;;;;;;3.73;100.00;100407.28;4962770;28;20516;-77
2023/02/01 01:15:39;;;;;;;9.27;2.80;;;;;;;3.81;100.00;100409.19;4968300;28;20043;-77
2023/02/01 01:18:05;;;;;;;10.95;2.92;;;;;;;3.87;100.00;100404.94;4968415;28;20043;-77
2023/02/01 01:20:33;;;;;;;8.90;2.40;;;;;;;3.91;100.00;100403.28;4963030;28;20038;-77
2023/02/01 01:22:58;;;;;;;7.70;1.90;;;;;;;3.95;100.00;100418.16;4979956;28;20035;-77
2023/02/01 01:25:24;;;;;;;10.90;2.30;;;;;;;3.98;100.00;100406.88;4977720;28;20045;-78
2023/02/01 01:27:49;;;;;;;8.85;2.10;;;;;;;3.92;100.00;100403.31;4965404;28;20042;-77
2023/02/01 01:30:15;;;;;;;12.05;2.75;;;;;;;3.92;100.00;100399.81;4963452;28;20062;-77
2023/02/01 01:32:40;;;;;;;11.20;2.10;;;;;;;3.90;99.89;100397.19;4966623;28;20146;-77
2023/02/01 01:35:06;;;;;;;12.70;2.80;;;;;;;4.04;99.72;100405.28;4977174;28;20518;-77
2023/02/01 01:37:32;;;;;;;8.90;2.35;;;;;;;4.06;99.10;100397.44;4966578;28;20054;-78
2023/02/01 01:39:57;;;;;;;9.88;2.05;;;;;;;4.14;97.92;100407.19;4966497;28;20563;-78
2023/02/01 01:42:22;;;;;;;7.07;1.80;;;;;;;4.22;98.14;100406.44;4968845;28;20031;-78
2023/02/01 01:47:45;;;;;;;8.45;1.92;;;;;;;4.25;97.90;100401.28;4980863;28;20123;-78
2023/02/01 01:50:16;;;;;;;7.45;2.13;;;;;;;4.24;97.93;100405.59;4992033;28;20039;-78
2023/02/01 01:52:46;;;;;;;11.30;3.15;;;;;;;4.24;97.42;100396.91;4972963;28;20031;-77
2023/02/01 01:55:13;;;;;;;8.85;1.95;;;;;;;4.17;98.25;100388.09;4985329;28;20493;-78
2023/02/01 01:57:43;;;;;;;10.38;1.98;;;;;;;4.20;98.37;100389.88;4985214;28;20034;-78
2023/02/01 02:00:12;;;;;;;7.65;1.88;;;;;;;4.09;99.34;100392.31;4975338;28;20073;-77
2023/02/01 02:02:42;;;;;;;8.47;1.87;;;;;;;4.02;99.95;100382.59;4982479;28;20034;-78
2023/02/01 02:05:09;;;;;;;7.95;2.28;;;;;;;3.95;100.00;100366.78;4995509;28;20711;-78
2023/02/01 02:07:37;;;;;;;6.05;1.70;;;;;;;3.91;100.00;100359.78;4984432;28;20049;-77
2023/02/01 02:10:05;;;;;;;7.13;1.75;;;;;;;3.83;100.00;100363.97;4987939;28;20563;-77
2023/02/01 02:12:32;;;;;;;7.80;1.63;;;;;;;3.74;100.00;100361.19;4985295;28;20478;-78
2023/02/01 02:14:58;;;;;;;7.93;1.55;;;;;;;3.70;100.00;100354.16;5001091;28;20041;-77
2023/02/01 02:18:00;;;;;;;7.60;1.42;;;;;;;3.69;100.00;100353.28;4985387;28;20030;-77
2023/02/01 02:21:10;;;;;;;5.75;1.63;;;;;;;3.65;100.00;100351.47;4972676;28;20440;-77
2023/02/01 02:24:07;;;;;;;7.65;1.58;;;;;;;3.65;100.00;100350.59;4982346;28;20049;-77
2023/02/01 02:26:56;;;;;;;8.57;1.80;;;;;;;3.63;100.00;100347.94;4980898;28;20039;-78
2023/02/01 02:29:50;;;;;;;8.35;1.55;;;;;;;3.64;100.00;100354.03;4947738;28;20031;-78
2023/02/01 02:32:50;;;;;;;8.48;1.45;;;;;;;3.64;100.00;100346.19;4978999;28;20080;-78
2023/02/01 02:35:38;;;;;;;7.80;1.85;;;;;;;3.67;100.00;100354.13;4983383;28;20456;-78
2023/02/01 02:38:31;;;;;;;7.97;1.95;;;;;;;3.64;100.00;100348.81;4981369;28;20069;-77
2023/02/01 02:47:23;;;;;;;6.53;2.65;;;;;;;3.63;100.00;100350.53;4981267;28;20051;-78
2023/02/01 02:54:45;;;;;;;11.05;1.80;;;;;;;3.66;100.00;100341.91;4982953;28;20034;-78
2023/02/01 02:55:44;;;;;;;8.32;2.00;;;;;;;3.78;100.00;100344.75;4983394;28;20034;-78
2023/02/01 03:06:26;;;;;;;9.30;3.20;;;;;;;4.11;100.00;100360.13;4977149;28;20041;-78
2023/02/01 03:08:56;;;;;;;8.63;1.75;;;;;;;4.19;100.00;100373.31;4981876;28;20035;-78
2023/02/01 03:12:55;;;;;;;6.07;1.52;;;;;;;4.21;100.00;100360.28;4984214;28;20034;-78
2023/02/01 03:14:11;;;;;;;6.35;1.92;;;;;;;4.27;100.00;100353.44;4977623;28;20027;-78
2023/02/01 03:16:46;;;;;;;4.22;1.17;;;;;;;4.32;100.00;100341.34;4983934;28;20030;-78
2023/02/01 03:19:32;;;;;;;9.55;1.85;;;;;;;4.35;100.00;100337.88;4980991;28;20134;-78
2023/02/01 03:22:05;;;;;;;7.95;1.63;;;;;;;4.44;99.44;100345.84;4983016;28;20078;-78
2023/02/01 03:24:34;;;;;;;10.75;1.63;;;;;;;4.52;98.73;100340.75;4999687;28;20474;-78
2023/02/01 03:27:40;;;;;;;6.53;1.65;;;;;;;4.47;99.32;100330.22;4983045;28;20035;-77
2023/02/01 03:30:22;;;;;;;6.07;1.42;;;;;;;4.58;98.80;100346.06;4968100;28;20061;-77
2023/02/01 03:33:00;;;;;;;7.82;1.38;;;;;;;4.47;99.25;100329.34;4973355;28;20030;-78
2023/02/01 03:35:36;;;;;;;5.38;1.23;;;;;;;4.53;98.93;100327.72;4980075;28;20421;-78
2023/02/01 03:38:20;;;;;;;10.02;2.00;;;;;;;4.54;98.14;100326.84;4981873;28;20042;-78
2023/02/01 03:40:53;;;;;;;8.07;1.33;;;;;;;4.55;98.14;100330.34;4994830;28;20497;-78
2023/02/01 03:43:21;;;;;;;8.60;1.45;;;;;;;4.63;97.81;100325.22;4982175;28;20022;-78
2023/02/01 03:45:52;;;;;;;4.43;0.93;;;;;;;4.68;97.05;100313.09;4981433;28;20041;-78
2023/02/01 03:48:18;;;;;;;17.90;1.75;;;;;;;4.63;96.31;100323.50;4969920;28;20050;-78
2023/02/01 03:50:49;;;;;;;9.40;1.25;;;;;;;4.67;97.05;100322.69;4991722;28;20033;-78
2023/02/01 03:53:17;;;;;;;10.95;1.75;;;;;;;4.69;96.10;100315.75;4979022;28;20069;-78
2023/02/01 03:55:44;;;;;;;6.70;1.27;;;;;;;4.73;96.35;100314.91;4982798;28;20041;-78
2023/02/01 03:58:14;;;;;;;9.32;1.85;;;;;;;4.73;94.93;100314.91;4982015;28;20387;-78
2023/02/01 04:00:39;;;;;;;7.47;1.35;;;;;;;4.75;95.86;100304.50;4990300;28;20700;-78
2023/02/01 04:03:06;;;;;;;9.52;1.88;;;;;;;4.79;94.85;100311.50;4985375;28;20037;-77
2023/02/01 04:05:33;;;;;;;7.35;1.55;;;;;;;4.75;95.30;100299.28;4997836;28;20035;-78
2023/02/01 04:08:02;;;;;;;13.55;1.77;;;;;;;4.78;95.70;100287.09;4981385;28;20034;-78
2023/02/01 04:10:27;;;;;;;6.63;1.92;;;;;;;4.83;95.22;100301.13;4983864;28;20070;-77
2023/02/01 04:12:52;;;;;;;8.38;1.67;;;;;;;4.78;95.35;100283.63;4982337;28;20022;-78
2023/02/01 04:15:18;;;;;;;10.60;1.42;;;;;;;4.79;95.60;100290.59;4983435;28;20406;-78
2023/02/01 04:17:44;;;;;;;9.77;1.85;;;;;;;4.81;95.43;100289.75;4972153;28;20489;-78
2023/02/01 04:20:10;;;;;;;7.45;2.13;;;;;;;4.80;95.87;100285.41;4982029;28;20110;-77
2023/02/01 04:22:35;;;;;;;10.98;2.25;;;;;;;4.76;95.02;100280.09;4984375;28;20057;-78
2023/02/01 04:25:01;;;;;;;13.35;1.35;;;;;;;4.75;95.33;100289.69;4981762;28;20070;-77
2023/02/01 04:27:26;;;;;;;12.02;2.13;;;;;;;4.80;95.73;100282.78;4981707;28;20045;-78
2023/02/01 04:29:51;;;;;;;7.47;1.42;;;;;;;4.81;95.50;100273.19;4984489;28;20081;-77
2023/02/01 04:32:19;;;;;;;6.30;1.35;;;;;;;4.85;94.85;100272.38;4979671;28;20508;-78
2023/02/01 04:34:45;;;;;;;8.45;1.67;;;;;;;4.84;95.28;100279.31;4981270;28;20050;-77
2023/02/01 04:37:10;;;;;;;7.72;1.70;;;;;;;4.82;95.55;100277.56;4982991;28;20049;-78
2023/02/01 04:39:35;;;;;;;9.15;1.23;;;;;;;4.82;95.03;100269.72;4981004;28;20066;-77
2023/02/01 04:42:01;;;;;;;6.28;1.25;;;;;;;4.80;95.11;100272.31;4975827;28;20121;-78
2023/02/01 04:44:26;;;;;;;9.02;1.20;;;;;;;4.76;95.25;100270.50;4982450;28;20072;-77
2023/02/01 04:46:52;;;;;;;5.93;1.58;;;;;;;4.76;95.54;100270.50;4982167;28;20054;-78
2023/02/01 04:49:18;;;;;;;6.57;1.80;;;;;;;4.78;94.81;100253.13;4982933;28;20046;-78
2023/02/01 04:51:43;;;;;;;11.55;2.13;;;;;;;4.81;95.08;100263.59;4984097;28;20109;-76
2023/02/01 04:54:11;;;;;;;9.02;1.55;;;;;;;4.83;94.71;100261.91;4981416;28;20125;-76
2023/02/01 04:56:37;;;;;;;12.10;2.00;;;;;;;4.86;94.90;100254.97;4984537;28;20721;-76
2023/02/01 04:59:03;;;;;;;12.30;1.92;;;;;;;4.88;94.62;100261.09;4982912;28;20117;-76
2023/02/01 05:01:28;;;;;;;11.02;2.20;;;;;;;4.87;94.19;100248.84;4978542;28;20113;-76
2023/02/01 05:03:54;;;;;;;11.23;2.10;;;;;;;4.86;93.27;100250.59;4964576;28;20633;-75
2023/02/01 05:06:19;;;;;;;8.63;2.00;;;;;;;4.89;93.41;100255.00;4986593;28;20042;-76
2023/02/01 05:08:44;;;;;;;8.80;1.85;;;;;;;4.92;93.18;100244.56;4981928;28;20030;-77
2023/02/01 05:13:47;;;;;;;12.20;2.20;;;;;;;4.98;93.04;100244.66;4984881;28;20514;-75
2023/02/01 05:13:55;;;;;;;11.70;2.33;;;;;;;4.95;93.32;100239.38;4976057;28;20753;-75
2023/02/01 05:16:20;;;;;;;15.02;2.20;;;;;;;4.98;93.04;100242.03;4981803;28;20049;-75
2023/02/01 05:18:46;;;;;;;13.88;2.13;;;;;;;4.96;93.20;100235.91;4979928;28;20114;-75
2023/02/01 05:21:12;;;;;;;14.80;2.03;;;;;;;4.94;92.49;100232.38;4978792;28;20113;-76
2023/02/01 05:24:09;;;;;;;7.30;2.15;;;;;;;4.94;92.57;100227.16;4981849;28;20460;-76
2023/02/01 05:26:24;;;;;;;9.80;1.75;;;;;;;4.91;93.07;100235.84;4982860;28;20117;-76
2023/02/01 05:28:49;;;;;;;8.05;1.40;;;;;;;4.98;91.68;100223.72;4979063;28;20438;-76
2023/02/01 05:31:15;;;;;;;11.23;1.70;;;;;;;4.98;92.15;100234.19;4981934;28;20105;-76
2023/02/01 05:33:40;;;;;;;21.65;2.17;;;;;;;4.94;91.90;100233.25;4971613;28;20086;-76
2023/02/01 05:36:06;;;;;;;8.48;2.10;;;;;;;4.96;91.84;100242.00;4975668;28;20097;-77
2023/02/01 05:38:31;;;;;;;9.63;2.20;;;;;;;4.98;92.09;100232.44;4977431;28;20034;-75
2023/02/01 05:40:57;;;;;;;10.85;2.33;;;;;;;4.99;91.74;100226.34;4973346;28;20409;-77
2023/02/01 05:43:22;;;;;;;14.82;2.35;;;;;;;4.99;91.87;100212.41;4972681;28;20030;-77
2023/02/01 05:45:48;;;;;;;13.32;2.38;;;;;;;5.02;90.98;100225.50;4981213;28;20045;-76
2023/02/01 05:48:13;;;;;;;10.05;2.42;;;;;;;4.99;91.40;100226.34;4970163;28;20027;-76
2023/02/01 05:50:39;;;;;;;18.13;2.38;;;;;;;5.01;91.60;100223.75;4977975;28;20045;-76
2023/02/01 05:53:08;;;;;;;10.45;2.05;;;;;;;5.01;90.77;100232.47;4981722;28;20114;-76
2023/02/01 05:55:33;;;;;;;13.57;2.67;;;;;;;4.91;90.70;100214.06;4983803;28;20697;-76
2023/02/01 05:57:58;;;;;;;10.95;2.35;;;;;;;4.91;90.99;100222.78;4987451;28;20413;-76
2023/02/01 06:00:24;;;;;;;13.73;2.03;;;;;;;4.89;91.14;100218.38;4984554;28;20522;-76
2023/02/01 06:02:49;;;;;;;12.60;2.13;;;;;;;4.90;91.29;100220.13;4982231;28;20574;-76
2023/02/01 06:05:14;;;;;;;14.25;2.05;;;;;;;4.94;91.47;100214.09;4982587;28;20040;-76
2023/02/01 06:07:40;;;;;;;16.10;2.22;;;;;;;4.97;90.79;100208.88;4983280;28;20030;-76
2023/02/01 06:10:06;;;;;;;11.02;2.47;;;;;;;4.89;91.51;100197.47;4985172;28;20037;-76
2023/02/01 06:12:31;;;;;;;9.07;1.80;;;;;;;4.88;90.98;100199.22;4981482;28;20118;-76
2023/02/01 06:14:58;;;;;;;7.90;2.10;;;;;;;4.92;90.80;100213.19;4981348;28;20069;-76
2023/02/01 06:17:23;;;;;;;11.38;2.03;;;;;;;4.92;90.80;100213.19;4969181;28;20035;-76
2023/02/01 06:19:49;;;;;;;11.77;1.67;;;;;;;4.91;91.04;100214.06;4980619;28;20089;-76
2023/02/01 06:22:14;;;;;;;11.35;2.20;;;;;;;4.84;91.17;100198.28;4981330;28;20035;-76
2023/02/01 06:24:40;;;;;;;10.90;1.30;;;;;;;4.92;90.80;100214.06;4982196;28;20049;-76
2023/02/01 06:27:06;;;;;;;14.40;2.03;;;;;;;4.95;90.23;100227.19;4980283;28;20049;-76
2023/02/01 06:29:32;;;;;;;13.20;1.45;;;;;;;4.81;91.00;100206.09;4982164;28;20446;-76
2023/02/01 06:31:57;;;;;;;11.60;1.77;;;;;;;4.79;91.35;100210.44;4978583;28;20050;-75
2023/02/01 06:34:23;;;;;;;14.55;2.55;;;;;;;4.78;91.78;100195.59;4983398;28;20156;-76
2023/02/01 06:36:48;;;;;;;6.93;1.45;;;;;;;4.73;91.73;100202.50;4976091;28;20058;-76
2023/02/01 06:39:15;;;;;;;11.23;2.33;;;;;;;4.75;91.84;100200.78;4980136;28;20043;-76
2023/02/01 06:41:42;;;;;;;16.02;2.05;;;;;;;4.78;92.08;100206.06;4981528;28;20034;-76
2023/02/01 06:44:08;;;;;;;10.90;2.30;;;;;;;4.70;92.54;100202.47;4979927;28;20052;-76
2023/02/01 06:46:33;;;;;;;9.75;2.03;;;;;;;4.74;91.95;100200.75;4982587;28;20501;-76
2023/02/01 06:48:58;;;;;;;12.40;2.03;;;;;;;4.71;92.51;100196.38;4982761;28;20042;-76
2023/02/01 06:51:26;;;;;;;15.15;2.10;;;;;;;4.80;91.28;100206.97;4985587;28;20088;-75
2023/02/01 06:53:52;;;;;;;9.88;1.50;;;;;;;4.81;91.92;100185.16;4983952;28;20042;-76
2023/02/01 06:56:18;;;;;;;12.50;1.80;;;;;;;4.84;92.38;100190.44;4988052;28;20532;-76
2023/02/01 06:58:43;;;;;;;11.35;1.70;;;;;;;4.90;92.46;100188.75;4984560;28;20097;-77
2023/02/01 07:01:10;;;;;;;8.73;1.60;;;;;;;4.95;93.26;100197.53;4985232;28;20057;-75
2023/02/01 07:03:36;;;;;;;14.73;2.25;;;;;;;4.80;95.10;100206.97;4985682;28;20030;-76
2023/02/01 07:06:02;;;;;;;12.93;2.13;;;;;;;4.65;98.18;100196.31;4982884;28;20436;-76
2023/02/01 07:08:28;;;;;;;5.75;1.40;;;;;;;4.48;100.00;100211.78;4985294;28;20046;-76
2023/02/01 07:10:53;;;;;;;10.77;2.15;;;;;;;4.33;100.00;100196.75;4983395;28;20038;-77
2023/02/01 07:13:18;;;;;;;12.27;2.38;;;;;;;4.25;100.00;100195.78;4983961;28;20046;-76
2023/02/01 07:15:46;;;;;;;11.43;1.70;;;;;;;4.17;100.00;100197.41;4983039;28;20060;-76
2023/02/01 07:18:14;;;;;;;11.50;1.73;;;;;;;4.17;100.00;100192.19;4984290;28;20085;-76
2023/02/01 07:20:39;;;;;;;12.55;2.13;;;;;;;4.15;100.00;100183.44;4991422;28;20130;-76
2023/02/01 07:23:05;;;;;;;12.10;2.47;;;;;;;4.25;100.00;100193.19;4983643;28;20520;-76
2023/02/01 07:25:31;;;;;;;7.10;1.70;;;;;;;4.30;100.00;100191.50;4981487;28;20037;-76
2023/02/01 07:27:57;;;;;;;8.60;1.63;;;;;;;4.29;100.00;100183.63;4983854;28;20161;-76
2023/02/01 07:30:26;;;;;;;13.20;3.35;;;;;;;4.33;100.00;100194.16;4988453;28;20149;-76
2023/02/01 07:32:51;;;;;;;8.73;1.70;;;;;;;4.35;100.00;100181.13;4983265;28;20045;-76
2023/02/01 07:35:17;;;;;;;15.60;2.80;;;;;;;4.33;100.00;100175.88;4993497;28;20038;-76
2023/02/01 07:37:42;;;;;;;7.45;1.48;;;;;;;4.35;100.00;100184.59;4986338;28;20033;-76
2023/02/01 07:40:09;;;;;;;10.07;2.17;;;;;;;4.38;100.00;100165.47;4984129;28;20097;-77
2023/02/01 07:42:44;;;;;;;7.18;1.52;;;;;;;4.39;100.00;100170.72;4985014;28;20385;-76
2023/02/01 07:45:12;;;;;;;13.05;2.47;;;;;;;4.46;100.00;100166.47;4953632;28;20085;-76
2023/02/01 07:47:37;;;;;;;5.90;1.95;;;;;;;4.55;100.00;100168.28;5012809;23;20050;-76
2023/02/01 07:50:03;;;;;;;10.05;2.78;;;;;;;4.63;100.00;100148.34;5003769;28;20411;-76
2023/02/01 07:52:28;;;;;;;13.75;2.08;;;;;;;4.68;99.22;100162.34;5002515;28;20481;-77
2023/02/01 07:54:54;;;;;;;11.00;2.22;;;;;;;4.75;99.42;100147.63;5011714;28;20030;-76
2023/02/01 07:57:19;;;;;;;12.73;1.92;;;;;;;4.77;99.27;100145.91;5002482;28;20660;-76
2023/02/01 08:02:37;;;;;;;;;;;;;;;4.69;100.00;100144.94;5003304;28;20386;-76
2023/02/01 08:05:04;;;;;;;11.15;1.80;;;;;;;4.65;100.00;100141.41;5008230;28;19913;-76
2023/02/01 08:07:30;;;;;;;9.02;2.17;;;;;;;4.58;100.00;100155.25;5003098;28;20050;-76
2023/02/01 08:09:55;;;;;;;10.48;1.80;;;;;;;4.64;100.00;100139.66;5005497;28;20053;-76
2023/02/01 08:12:20;;;;;;;8.55;1.75;;;;;;;4.67;100.00;100129.25;5004761;28;20026;-77
2023/02/01 08:14:46;;;;;;;7.35;1.30;;;;;;;4.69;100.00;100138.00;5004956;28;20045;-76
2023/02/01 08:17:11;;;;;;;11.40;2.38;;;;;;;4.59;100.00;100138.75;5005279;28;20108;-76
2023/02/01 08:19:36;;;;;;;15.02;2.20;;;;;;;4.61;100.00;100137.91;5009502;28;20033;-76
2023/02/01 08:22:06;;;;;;;13.10;1.77;;;;;;;4.67;100.00;100126.63;5001630;28;20038;-76
2023/02/01 08:24:32;;;;;;;15.00;3.40;;;;;;;4.69;100.00;100124.91;5002634;28;20037;-76
2023/02/01 08:26:57;;;;;;;11.25;2.72;;;;;;;4.69;99.15;100132.75;5005375;28;20037;-76
2023/02/01 08:29:23;;;;;;;10.63;1.88;;;;;;;4.84;99.34;100127.66;5000722;28;20081;-77
2023/02/01 08:31:48;;;;;;;8.73;1.50;;;;;;;4.87;98.17;100125.97;4999405;28;20026;-76
2023/02/01 08:34:14;;;;;;;7.82;1.75;;;;;;;4.99;98.56;100120.88;5004437;28;20046;-76
2023/02/01 08:36:40;;;;;;;8.63;1.92;;;;;;;5.08;96.93;100115.69;5004639;28;20040;-77
2023/02/01 08:39:08;;;;;;;8.48;2.58;;;;;;;5.13;96.19;100123.59;5003935;28;20045;-76
2023/02/01 08:41:34;;;;;;;14.15;2.78;;;;;;;5.21;97.61;100112.38;5006034;28;20045;-76
2023/02/01 08:43:59;;;;;;;15.93;2.20;;;;;;;5.20;96.71;100117.56;5007594;28;20404;-76
2023/02/01 08:46:25;;;;;;;11.90;1.83;;;;;;;5.26;97.32;100130.69;4998924;28;20088;-77
2023/02/01 08:48:51;;;;;;;7.78;2.28;;;;;;;5.28;96.82;100108.91;5006810;28;20034;-76
2023/02/01 08:51:18;;;;;;;12.48;1.67;;;;;;;5.33;95.73;100085.41;4999909;28;20034;-76
2023/02/01 08:53:44;;;;;;;13.00;2.22;;;;;;;5.38;96.03;100086.31;5004105;28;20034;-76
2023/02/01 08:56:11;;;;;;;5.55;1.30;;;;;;;5.45;95.40;100095.13;5001687;28;20058;-77
2023/02/01 08:58:37;;;;;;;9.23;3.13;;;;;;;5.22;93.94;100089.69;5002131;28;20042;-76
2023/02/01 09:01:08;;;;;;;9.63;2.15;;;;;;;5.25;95.31;100102.78;5004288;28;20049;-75
2023/02/01 09:03:34;;;;;;;8.80;1.58;;;;;;;5.20;95.47;100076.59;4999930;28;20033;-76
2023/02/01 09:06:04;;;;;;;7.30;2.20;;;;;;;5.23;96.18;100089.69;5002999;28;20412;-76
2023/02/01 09:08:30;;;;;;;10.30;2.22;;;;;;;5.24;96.87;100080.13;5000544;28;20462;-76
2023/02/01 09:11:00;;;;;;;9.77;2.42;;;;;;;5.16;97.31;100087.91;5005222;28;20041;-76
2023/02/01 09:13:26;;;;;;;15.82;2.55;;;;;;;5.04;98.42;100074.69;5000565;28;20050;-76
2023/02/01 09:15:51;;;;;;;7.50;1.42;;;;;;;4.98;99.58;100080.75;5001742;28;20121;-76
2023/02/01 09:18:16;;;;;;;7.25;1.40;;;;;;;4.94;100.00;100080.72;5009344;28;20041;-76
2023/02/01 09:20:42;;;;;;;7.63;1.85;;;;;;;4.92;100.00;100092.88;5002935;28;20054;-76
2023/02/01 09:23:07;;;;;;;6.78;1.92;;;;;;;4.82;100.00;100082.34;5002143;28;20050;-76
2023/02/01 09:25:32;;;;;;;4.75;1.40;;;;;;;4.69;100.00;100108.34;5002058;28;20037;-77
2023/02/01 09:27:58;;;;;;;6.55;1.25;;;;;;;4.56;100.00;100105.59;5000814;28;20098;-77
2023/02/01 09:30:23;;;;;;;6.60;1.80;;;;;;;4.38;100.00;100116.72;5002607;28;20105;-79
2023/02/01 09:32:48;;;;;;;6.18;1.60;;;;;;;4.29;100.00;100137.47;5005377;28;20117;-81
2023/02/01 09:35:14;;;;;;;4.20;1.05;;;;;;;4.20;100.00;100110.38;5010115;28;20524;-80
2023/02/01 09:37:39;;;;;;;6.45;1.30;;;;;;;4.14;100.00;100116.41;5011889;28;20038;-80
2023/02/01 09:40:05;;;;;;;9.93;1.80;;;;;;;4.04;100.00;100145.88;5015200;28;20088;-80
2023/02/01 09:42:52;;;;;;;6.30;1.90;;;;;;;4.02;100.00;100150.19;5011818;28;20029;-80
2023/02/01 09:45:27;;;;;;;7.05;1.80;;;;;;;4.02;100.00;100131.91;5010218;28;20034;-80
2023/02/01 09:48:02;;;;;;;6.78;2.38;;;;;;;4.03;100.00;100131.03;5011449;28;20041;-80
2023/02/01 09:50:40;;;;;;;11.88;1.75;;;;;;;4.01;100.00;100132.75;5017952;28;20514;-80
2023/02/01 09:53:15;;;;;;;5.22;1.40;;;;;;;3.93;100.00;100141.38;5009727;28;20034;-80
2023/02/01 09:55:47;;;;;;;7.95;3.65;;;;;;;3.92;100.00;100152.66;5009545;28;20054;-80
2023/02/01 09:58:25;;;;;;;6.72;2.05;;;;;;;3.94;100.00;100137.00;5014777;28;20039;-80
2023/02/01 10:00:56;;;;;;;4.25;1.20;;;;;;;3.94;100.00;100150.06;5016340;28;20042;-80
2023/02/01 10:03:24;;;;;;;8.10;1.45;;;;;;;3.95;100.00;100170.97;5007365;28;20524;-80
2023/02/01 10:05:55;;;;;;;4.65;1.10;;;;;;;3.94;100.00;100150.06;5013056;28;20042;-80
2023/02/01 10:09:03;;;;;;;4.72;1.50;;;;;;;3.89;100.00;100165.66;4994282;28;20689;-80
2023/02/01 10:11:49;;;;;;;5.55;1.40;;;;;;;3.96;100.00;100148.38;5009926;28;20050;-80
2023/02/01 10:14:27;;;;;;;5.95;1.02;;;;;;;3.98;100.00;100167.53;5027727;28;20049;-79
2023/02/01 10:17:35;;;;;;;4.10;1.05;;;;;;;4.02;100.00;100147.56;5012789;28;20539;-80
2023/02/01 10:20:26;;;;;;;2.92;1.23;;;;;;;3.98;100.00;100149.25;5016058;28;20110;-79
2023/02/01 10:23:16;;;;;;;5.47;2.30;;;;;;;4.03;100.00;100206.75;5008927;28;20053;-80
2023/02/01 10:25:53;;;;;;;10.50;2.10;;;;;;;4.04;100.00;100156.31;5012071;28;20045;-80
2023/02/01 10:28:21;;;;;;;5.03;1.00;;;;;;;4.02;100.00;100168.47;5014842;28;20030;-80
2023/02/01 10:30:48;;;;;;;4.78;1.17;;;;;;;3.96;100.00;100169.25;5012206;28;20073;-79
2023/02/01 10:33:30;;;;;;;3.80;1.05;;;;;;;4.01;100.00;100170.19;5008639;28;20378;-80
2023/02/01 10:36:13;;;;;;;7.03;1.50;;;;;;;4.20;100.00;100188.75;5015443;28;20497;-81
2023/02/01 10:38:38;;;;;;;7.07;1.50;;;;;;;4.31;100.00;100201.09;5016669;28;20053;-79
2023/02/01 10:41:13;;;;;;;6.38;1.60;;;;;;;4.43;100.00;100236.97;5011579;28;20401;-80
2023/02/01 10:43:39;;;;;;;5.50;1.58;;;;;;;4.46;100.00;100196.94;5013504;28;20022;-80
2023/02/01 10:46:06;;;;;;;7.90;1.48;;;;;;;4.54;100.00;100183.09;5011654;28;20037;-80
2023/02/01 10:48:32;;;;;;;9.15;1.85;;;;;;;4.60;100.00;100196.25;5014051;28;20056;-80
2023/02/01 10:51:06;;;;;;;5.20;1.20;;;;;;;4.72;100.00;100198.16;5012750;28;20038;-80
2023/02/01 10:53:51;;;;;;;2.85;1.00;;;;;;;4.82;100.00;100186.94;4993822;28;20170;-80
2023/02/01 10:56:23;;;;;;;4.97;1.60;;;;;;;4.93;100.00;100196.66;5008626;28;20042;-80
2023/02/01 10:58:49;;;;;;;8.32;1.50;;;;;;;5.10;100.00;100202.91;5007650;28;20042;-80
2023/02/01 11:01:21;;;;;;;5.75;1.08;;;;;;;5.39;100.00;100195.38;5013327;28;20033;-80
2023/02/01 11:03:58;;;;;;;7.38;2.58;;;;;;;5.80;100.00;100191.38;5018063;28;20045;-81
2023/02/01 11:06:36;;;;;;;7.13;1.77;;;;;;;6.15;100.00;100204.72;5015190;28;20121;-79
2023/02/01 11:09:07;;;;;;;8.52;1.20;;;;;;;6.07;100.00;100202.06;5012385;28;20037;-80
2023/02/01 11:11:53;;;;;;;5.95;1.38;;;;;;;5.97;100.00;100246.53;5016833;28;20515;-79
2023/02/01 11:14:25;;;;;;;4.78;1.10;;;;;;;5.77;100.00;100199.22;5011329;28;20046;-79
2023/02/01 11:16:57;;;;;;;4.63;0.82;;;;;;;5.68;100.00;100192.13;5015299;28;20046;-79
2023/02/01 11:19:23;;;;;;;4.13;1.10;;;;;;;5.65;100.00;100197.34;5020903;28;20392;-80
2023/02/01 11:21:51;;;;;;;4.22;1.17;;;;;;;5.60;100.00;100197.31;5017023;28;20292;-80
2023/02/01 11:24:33;;;;;;;7.95;0.70;;;;;;;5.49;100.00;100206.81;5000694;28;20038;-79
2023/02/01 11:27:04;;;;;;;7.00;2.28;;;;;;;5.37;100.00;100204.06;5012667;28;20045;-79
2023/02/01 11:29:38;;;;;;;4.32;1.52;;;;;;;5.12;100.00;100198.59;5017620;28;20046;-80
2023/02/01 11:32:04;;;;;;;6.00;0.98;;;;;;;4.87;100.00;100207.03;5011017;28;20052;-80
2023/02/01 11:34:51;;;;;;;11.93;1.67;;;;;;;4.59;100.00;100204.09;5014193;28;20069;-79
2023/02/01 11:37:21;;;;;;;11.05;1.40;;;;;;;4.39;100.00;100183.78;5010917;28;20041;-80
2023/02/01 11:39:55;;;;;;;7.70;1.88;;;;;;;4.45;100.00;100195.16;5017752;28;20197;-81
2023/02/01 11:42:21;;;;;;;6.95;1.27;;;;;;;4.53;100.00;100188.31;5012054;28;20481;-81
2023/02/01 11:44:47;;;;;;;6.82;1.52;;;;;;;4.52;100.00;100197.88;5014900;28;20048;-80
2023/02/01 11:47:23;;;;;;;5.43;1.60;;;;;;;4.49;100.00;100191.75;5018565;28;20037;-79
2023/02/01 11:49:50;;;;;;;5.75;1.17;;;;;;;4.50;100.00;100183.91;5016874;28;20046;-79
2023/02/01 11:52:22;;;;;;;5.43;1.00;;;;;;;4.37;100.00;100200.28;5013691;28;20041;-79
2023/02/01 11:55:00;;;;;;;3.50;1.02;;;;;;;4.30;100.00;100195.84;5011238;28;20042;-79
2023/02/01 11:58:02;;;;;;;5.03;2.10;;;;;;;4.27;100.00;100201.91;5011068;28;20137;-78
2023/02/01 12:00:46;;;;;;;4.72;1.05;;;;;;;4.33;100.00;100191.53;5015736;28;20153;-81
2023/02/01 12:03:42;;;;;;;6.15;1.08;;;;;;;4.44;100.00;100177.75;5020079;28;20058;-80